Yongchuan, China
Current Conditions -  °F | °C
As of 3:00 PM on Saturday 25 Oct 2014 (Local Time) from ZUCK Reporting Station
Scattered Clouds Scattered Clouds  
Wind Chill: 77°   Ceiling: Unl
Heat Index: 79°   Visibility: 4mi
Dew Point: 59°   Wind: 7mph
Humidity: 54%   Direction: 120°ESE
Pressure: 29.97"   Gusts: NA
Location:  29.37°N, 105.98°E
Report Text: ZUCK 250700Z 12003MPS 070V160 7000 SCT023 25/15 Q1015 NOSIG
Loading
Personal Weather Stations






























Interactive Weather Map
Tropical Storm Tracking
New forecast layout! Learn more

10-Day Weather Forecast

Advertisements
Track Severe Weather on mobile